Time;durP1;ratioP1;P1;durP2;ratioP2;P2;SDS_P1;SDS_P2;PMS_P1;PMS_P2;Temp;Humidity;BMP_temperature;BMP_pressure;BME280_temperature;BME280_humidity;BME280_pressure;Samples;Min_cycle;Max_cycle;Signal;HPM_P1;HPM_P2
2021/03/05 00:00:49;;;;;;;29.90;13.48;;;;;;;3.39;70.77;98833.72;3522447;28;20059;-57
2021/03/05 00:02:31;;;;;;;28.70;13.88;;;;;;;3.38;70.91;98834.53;3521044;28;20048;-56
2021/03/05 00:04:13;;;;;;;36.65;15.25;;;;;;;3.36;70.26;98833.63;3525519;28;20500;-57
2021/03/05 00:05:55;;;;;;;32.30;13.52;;;;;;;3.34;71.05;98820.78;3521748;28;20051;-47
2021/03/05 00:07:38;;;;;;;33.55;13.38;;;;;;;3.36;71.63;98833.63;3522082;28;20051;-57
2021/03/05 00:09:20;;;;;;;32.63;14.30;;;;;;;3.35;71.13;98831.88;3525631;28;20101;-49
2021/03/05 00:11:02;;;;;;;30.77;13.25;;;;;;;3.33;70.88;98828.41;3520844;28;20058;-47
2021/03/05 00:12:43;;;;;;;28.88;13.25;;;;;;;3.30;71.02;98824.09;3523282;28;20043;-48
2021/03/05 00:14:24;;;;;;;28.88;12.77;;;;;;;3.30;72.02;98825.78;3519749;28;20043;-50
2021/03/05 00:16:07;;;;;;;37.88;14.27;;;;;;;3.26;70.78;98825.69;3518502;28;20047;-51
2021/03/05 00:17:49;;;;;;;33.05;13.57;;;;;;;3.24;70.68;98829.91;3525239;28;20044;-48
2021/03/05 00:19:31;;;;;;;31.80;13.30;;;;;;;3.23;71.42;98835.84;3516765;28;20554;-49
2021/03/05 00:21:12;;;;;;;29.88;13.15;;;;;;;3.22;71.98;98833.22;3511725;28;20080;-47
2021/03/05 00:22:54;;;;;;;33.58;14.32;;;;;;;3.22;71.30;98833.22;3522245;28;20074;-48
2021/03/05 00:24:36;;;;;;;31.77;13.75;;;;;;;3.20;70.94;98837.44;3523072;28;20051;-48
2021/03/05 00:26:18;;;;;;;31.52;12.88;;;;;;;3.15;71.16;98834.75;3522849;28;20051;-48
2021/03/05 00:28:00;;;;;;;28.45;12.82;;;;;;;3.11;71.59;98832.94;3521283;28;20050;-56
2021/03/05 00:29:41;;;;;;;34.22;12.27;;;;;;;3.08;71.76;98828.59;3523572;28;20548;-57
2021/03/05 00:31:23;;;;;;;31.20;13.50;;;;;;;3.06;72.18;98829.34;3516942;28;20055;-56
2021/03/05 00:33:07;;;;;;;28.35;12.23;;;;;;;3.02;71.66;98825.81;3512008;28;20048;-57
2021/03/05 00:35:09;;;;;;;33.75;13.15;;;;;;;3.00;72.01;98837.72;3511755;28;20048;-56
2021/03/05 00:36:51;;;;;;;30.75;12.93;;;;;;;2.97;72.30;98841.88;3515225;28;20047;-57
2021/03/05 00:38:32;;;;;;;36.85;14.05;;;;;;;2.95;72.18;98839.28;3524938;28;20051;-57
2021/03/05 00:40:16;;;;;;;34.85;13.60;;;;;;;2.94;72.38;98844.34;3521669;28;20071;-56
2021/03/05 00:41:57;;;;;;;29.52;13.07;;;;;;;2.93;72.42;98845.19;3524594;28;20048;-57
2021/03/05 00:43:39;;;;;;;30.38;13.27;;;;;;;2.92;72.04;98839.19;3521810;28;20059;-55
2021/03/05 00:45:22;;;;;;;27.20;12.50;;;;;;;2.91;72.94;98840.03;3523462;28;20047;-48
2021/03/05 00:47:04;;;;;;;30.85;12.27;;;;;;;2.91;72.57;98845.16;3510732;28;20052;-57
2021/03/05 00:48:46;;;;;;;29.77;13.25;;;;;;;2.90;73.30;98836.56;3513985;28;20504;-56
2021/03/05 00:50:28;;;;;;;30.23;13.07;;;;;;;2.91;73.09;98837.47;3524990;28;20126;-57
2021/03/05 00:52:09;;;;;;;33.75;12.55;;;;;;;2.92;73.40;98835.75;3521008;28;20071;-57
2021/03/05 00:53:51;;;;;;;28.90;13.02;;;;;;;2.93;73.14;98832.38;3523173;28;20043;-57
2021/03/05 00:55:33;;;;;;;31.65;13.48;;;;;;;2.94;73.69;98834.09;3520955;28;20054;-56
2021/03/05 00:57:15;;;;;;;29.55;13.20;;;;;;;2.95;73.26;98836.72;3522456;28;20118;-56
2021/03/05 00:58:56;;;;;;;27.75;12.63;;;;;;;2.96;73.39;98840.13;3523529;28;20055;-56
2021/03/05 01:00:38;;;;;;;33.10;12.82;;;;;;;2.94;73.07;98834.09;3519975;28;20051;-57
2021/03/05 01:02:23;;;;;;;32.17;12.75;;;;;;;2.93;72.75;98829.81;3524716;28;20139;-56
2021/03/05 01:04:06;;;;;;;29.15;13.18;;;;;;;2.91;73.61;98824.66;3519674;28;20496;-56
2021/03/05 01:05:48;;;;;;;33.08;13.43;;;;;;;2.89;73.78;98829.72;3524151;28;20084;-56
2021/03/05 01:07:30;;;;;;;33.85;13.55;;;;;;;2.90;73.55;98825.47;3521792;28;20496;-57
2021/03/05 01:09:12;;;;;;;27.67;12.43;;;;;;;2.88;73.41;98820.28;3522288;28;20109;-56
2021/03/05 01:10:53;;;;;;;29.75;12.52;;;;;;;2.89;73.53;98827.16;3523232;28;20086;-56
2021/03/05 01:12:35;;;;;;;29.60;13.00;;;;;;;2.89;73.37;98827.16;3521117;28;20455;-57
2021/03/05 01:14:17;;;;;;;26.92;11.63;;;;;;;2.88;73.43;98832.22;3523308;28;20078;-57
2021/03/05 01:15:58;;;;;;;27.55;11.77;;;;;;;2.87;72.93;98826.25;3520708;28;20043;-57
2021/03/05 01:17:40;;;;;;;26.73;10.38;;;;;;;2.86;72.96;98829.63;3522594;28;20047;-57
2021/03/05 01:19:23;;;;;;;25.15;11.77;;;;;;;2.84;72.18;98831.28;3513628;28;20162;-54
2021/03/05 01:21:06;;;;;;;22.90;10.13;;;;;;;2.83;72.42;98829.50;3512626;28;20047;-56
2021/03/05 01:22:47;;;;;;;28.35;11.40;;;;;;;2.81;71.88;98830.31;3510235;28;20067;-57
2021/03/05 01:24:29;;;;;;;22.45;10.07;;;;;;;2.79;72.49;98832.81;3514561;28;20511;-57
2021/03/05 01:26:10;;;;;;;22.92;10.13;;;;;;;2.79;72.39;98834.53;3524472;28;20043;-57
2021/03/05 01:27:53;;;;;;;24.60;10.15;;;;;;;2.78;72.44;98835.31;3520722;28;20048;-57
2021/03/05 01:29:34;;;;;;;26.77;10.00;;;;;;;2.75;71.46;98840.34;3522501;28;20051;-55
2021/03/05 01:31:16;;;;;;;25.08;10.32;;;;;;;2.72;72.13;98841.13;3521425;28;20089;-56
2021/03/05 01:32:58;;;;;;;20.92;8.90;;;;;;;2.70;72.72;98838.53;3522218;28;20043;-57
2021/03/05 01:34:40;;;;;;;25.20;9.15;;;;;;;2.68;72.56;98839.31;3510662;28;20052;-57
2021/03/05 01:36:22;;;;;;;23.13;9.48;;;;;;;2.68;73.12;98844.44;3516196;28;20055;-57
2021/03/05 01:38:03;;;;;;;25.42;10.55;;;;;;;2.63;71.98;98846.84;3524671;28;20055;-57
2021/03/05 01:39:45;;;;;;;26.95;10.20;;;;;;;2.62;72.23;98836.53;3520696;28;20543;-57
2021/03/05 01:41:27;;;;;;;26.90;10.77;;;;;;;2.58;72.35;98842.41;3523645;28;20097;-56
2021/03/05 01:43:09;;;;;;;24.77;10.15;;;;;;;2.54;73.17;98844.00;3521199;28;20545;-57
2021/03/05 01:44:51;;;;;;;26.17;10.95;;;;;;;2.53;72.96;98843.94;3521843;28;20055;-57
2021/03/05 01:46:33;;;;;;;26.10;10.27;;;;;;;2.50;72.99;98853.25;3523541;28;20078;-57
2021/03/05 01:48:17;;;;;;;21.13;9.38;;;;;;;2.48;73.17;98848.91;3519481;28;20043;-57
2021/03/05 01:49:59;;;;;;;;;;;;;;;2.45;73.02;98853.94;3524861;28;20047;-56
2021/03/05 01:51:41;;;;;;;24.15;10.77;;;;;;;2.42;73.51;98852.13;3520474;28;19923;-57
2021/03/05 01:53:23;;;;;;;22.95;9.43;;;;;;;2.40;73.50;98852.91;3523298;28;20118;-55
2021/03/05 01:55:06;;;;;;;25.10;10.90;;;;;;;2.37;73.80;98848.53;3521694;28;20048;-57
2021/03/05 01:56:50;;;;;;;29.50;11.05;;;;;;;2.36;73.96;98856.16;3520005;28;20052;-48
2021/03/05 01:58:32;;;;;;;29.27;11.20;;;;;;;2.37;74.27;98852.81;3510169;28;20101;-48
2021/03/05 02:00:16;;;;;;;24.85;10.40;;;;;;;2.38;75.10;98863.09;3514867;28;20047;-48
2021/03/05 02:01:58;;;;;;;;;;;;;;;2.38;74.41;98862.19;3523781;28;20468;-48
2021/03/05 02:03:40;;;;;;;19.55;8.23;;;;;;;2.37;73.99;98865.59;3512841;28;19971;-48
2021/03/05 02:05:23;;;;;;;29.65;10.93;;;;;;;2.36;74.11;98858.72;3512673;28;20051;-48
2021/03/05 02:07:06;;;;;;;26.00;11.07;;;;;;;2.33;74.43;98862.06;3521887;28;20504;-48
2021/03/05 02:08:48;;;;;;;26.95;11.98;;;;;;;2.29;74.21;98865.34;3518946;28;20750;-48
2021/03/05 02:10:29;;;;;;;25.75;11.38;;;;;;;2.27;74.84;98861.84;3524083;28;20563;-47
2021/03/05 02:12:11;;;;;;;26.05;10.88;;;;;;;2.26;74.81;98860.13;3520218;28;20051;-48
2021/03/05 02:13:55;;;;;;;26.33;11.18;;;;;;;2.26;75.38;98860.13;3521417;28;20062;-47
2021/03/05 02:15:38;;;;;;;;;;;;;;;2.26;75.39;98860.13;3521276;28;20058;-47
2021/03/05 02:17:26;;;;;;;28.42;11.13;;;;;;;2.26;75.81;98861.00;3522200;28;19924;-48
2021/03/05 02:19:42;;;;;;;28.42;10.45;;;;;;;2.28;75.54;98869.59;3522425;28;20058;-47
2021/03/05 02:22:05;;;;;;;25.58;12.13;;;;;;;2.29;75.04;98868.78;3519941;28;20044;-49
2021/03/05 02:23:50;;;;;;;27.98;11.35;;;;;;;2.27;75.10;98867.88;3519239;28;20056;-48
2021/03/05 02:26:03;;;;;;;27.92;11.55;;;;;;;2.27;75.01;98872.09;3524030;28;20094;-47
2021/03/05 02:28:12;;;;;;;31.60;12.85;;;;;;;2.25;75.02;98879.75;3521175;28;20076;-47
2021/03/05 02:30:23;;;;;;;25.55;11.13;;;;;;;2.27;75.87;98879.75;3520228;28;20055;-47
2021/03/05 02:32:10;;;;;;;30.70;11.35;;;;;;;2.26;75.99;98886.56;3522500;28;20048;-47
2021/03/05 02:33:56;;;;;;;29.83;12.00;;;;;;;2.27;76.02;98884.88;3509564;28;20467;-47
2021/03/05 02:35:38;;;;;;;28.42;11.57;;;;;;;2.25;75.86;98886.53;3513682;28;20496;-48
2021/03/05 02:37:23;;;;;;;26.85;11.25;;;;;;;2.25;75.58;98884.84;3523976;28;20055;-49
2021/03/05 02:39:12;;;;;;;30.80;12.45;;;;;;;2.23;75.51;98896.69;3520235;28;20138;-48
2021/03/05 02:40:55;;;;;;;30.25;11.18;;;;;;;2.22;75.68;98894.97;3522716;28;20428;-56
2021/03/05 02:42:42;;;;;;;25.13;11.50;;;;;;;2.21;75.83;98890.66;3521454;28;20051;-57
2021/03/05 02:44:27;;;;;;;29.00;11.88;;;;;;;2.20;75.45;98890.59;3520565;28;20047;-57
2021/03/05 02:46:10;;;;;;;31.60;12.40;;;;;;;2.20;76.30;98899.19;3523552;28;20055;-57
2021/03/05 02:47:55;;;;;;;28.50;12.02;;;;;;;2.18;76.32;98900.78;3520224;28;20043;-57
2021/03/05 02:49:40;;;;;;;34.22;13.13;;;;;;;2.17;76.41;98898.19;3521618;28;20418;-57
2021/03/05 02:51:24;;;;;;;33.85;12.23;;;;;;;2.16;76.23;98901.56;3511468;28;20052;-57
2021/03/05 02:53:09;;;;;;;31.67;12.27;;;;;;;2.13;76.54;98905.75;3513311;28;20129;-57
2021/03/05 02:54:54;;;;;;;32.42;12.40;;;;;;;2.13;76.62;98899.78;3523146;28;20120;-57
2021/03/05 02:56:39;;;;;;;37.65;13.38;;;;;;;2.13;76.19;98904.91;3520199;28;20070;-57
2021/03/05 02:58:22;;;;;;;30.80;12.85;;;;;;;2.12;76.91;98895.47;3523266;28;20054;-57
2021/03/05 03:00:08;;;;;;;29.70;12.48;;;;;;;2.10;76.89;98895.41;3512076;28;20437;-56
2021/03/05 03:01:52;;;;;;;36.08;13.18;;;;;;;2.10;77.13;98900.53;3511991;28;20466;-57
2021/03/05 03:03:34;;;;;;;;;;;;;;;2.10;77.39;98899.69;3521987;28;20105;-57
2021/03/05 03:05:17;;;;;;;30.00;12.48;;;;;;;2.11;77.07;98911.63;3518626;28;19931;-57
2021/03/05 03:07:03;;;;;;;33.35;13.95;;;;;;;2.10;77.24;98908.22;3523739;28;20280;-57
2021/03/05 03:08:46;;;;;;;35.78;11.98;;;;;;;2.10;77.54;98915.03;3520159;28;20082;-57
2021/03/05 03:10:29;;;;;;;36.53;12.43;;;;;;;2.10;77.50;98915.03;3522862;28;20497;-57
2021/03/05 03:12:14;;;;;;;31.73;13.35;;;;;;;2.08;77.30;98914.97;3520033;28;20055;-57
2021/03/05 03:13:56;;;;;;;31.10;12.52;;;;;;;2.08;77.48;98917.53;3519974;28;20504;-57
2021/03/05 03:15:39;;;;;;;33.20;12.23;;;;;;;2.08;77.49;98919.22;3525806;28;20066;-57
2021/03/05 03:17:22;;;;;;;33.95;14.45;;;;;;;2.08;77.68;98920.09;3517564;28;20044;-57
2021/03/05 03:19:09;;;;;;;30.67;13.60;;;;;;;2.08;77.89;98922.63;3511873;28;20052;-56
2021/03/05 03:20:50;;;;;;;35.22;14.00;;;;;;;2.09;77.67;98923.50;3521985;28;20051;-57
2021/03/05 03:22:32;;;;;;;32.58;13.55;;;;;;;2.10;77.91;98931.22;3523304;28;20498;-57
2021/03/05 03:24:14;;;;;;;33.72;13.63;;;;;;;2.09;77.46;98926.91;3512597;28;20055;-57
2021/03/05 03:25:59;;;;;;;35.72;13.10;;;;;;;2.08;77.62;98938.00;3514581;28;20432;-47
2021/03/05 03:27:42;;;;;;;33.83;13.25;;;;;;;2.09;77.67;98933.72;3525851;28;20633;-48
2021/03/05 03:29:24;;;;;;;36.03;13.65;;;;;;;2.08;77.38;98932.00;3522534;28;20047;-47
2021/03/05 03:31:07;;;;;;;35.17;13.60;;;;;;;2.06;77.57;98937.06;3524078;28;20050;-47
2021/03/05 03:32:49;;;;;;;28.88;12.40;;;;;;;2.05;77.41;98942.13;3521884;28;20508;-47
2021/03/05 03:34:32;;;;;;;35.38;14.23;;;;;;;2.04;77.85;98945.47;3521927;28;20134;-47
2021/03/05 03:36:14;;;;;;;32.72;14.57;;;;;;;2.04;78.09;98942.94;3524339;28;20047;-47
2021/03/05 03:37:57;;;;;;;33.85;14.05;;;;;;;2.03;77.92;98943.75;3520666;28;20113;-47
2021/03/05 03:39:39;;;;;;;35.97;13.88;;;;;;;2.03;78.00;98941.22;3525558;28;20051;-48
2021/03/05 03:41:21;;;;;;;31.42;13.90;;;;;;;2.02;77.56;98940.31;3516810;28;20043;-58
2021/03/05 03:43:03;;;;;;;35.35;13.63;;;;;;;2.01;77.84;98943.69;3511472;28;20424;-57
2021/03/05 03:44:45;;;;;;;35.45;13.90;;;;;;;2.01;77.94;98942.84;3522750;28;20420;-57
2021/03/05 03:46:28;;;;;;;32.88;13.57;;;;;;;1.99;78.25;98935.13;3521970;28;20047;-57
2021/03/05 03:48:11;;;;;;;38.08;14.90;;;;;;;1.98;77.85;98935.91;3524734;28;20255;-57
2021/03/05 03:49:57;;;;;;;31.75;13.38;;;;;;;1.98;78.17;98946.16;3521954;28;20051;-57
2021/03/05 03:51:42;;;;;;;30.67;12.88;;;;;;;1.95;77.89;98940.91;3525689;28;20180;-58
2021/03/05 03:53:26;;;;;;;34.13;12.85;;;;;;;1.94;78.28;98934.06;3520058;28;20043;-58
2021/03/05 03:55:09;;;;;;;31.70;13.30;;;;;;;1.93;78.47;98937.44;3523078;28;20079;-57
2021/03/05 03:56:55;;;;;;;32.28;13.55;;;;;;;1.93;78.40;98932.31;3512833;28;20063;-58
2021/03/05 03:58:39;;;;;;;34.05;14.38;;;;;;;1.93;78.50;98937.44;3514549;28;20075;-58
2021/03/05 04:00:22;;;;;;;33.47;13.75;;;;;;;1.90;78.65;98935.66;3525413;28;20500;-57
2021/03/05 04:02:07;;;;;;;32.45;12.80;;;;;;;1.89;78.51;98949.25;3520519;28;20546;-58
2021/03/05 04:03:50;;;;;;;27.35;12.65;;;;;;;1.88;78.67;98949.19;3524678;28;20077;-58
2021/03/05 04:05:38;;;;;;;33.72;13.68;;;;;;;1.87;78.61;98948.31;3522759;28;20143;-57
2021/03/05 04:07:20;;;;;;;37.00;14.48;;;;;;;1.86;79.23;98949.13;3520932;28;20499;-58
2021/03/05 04:09:03;;;;;;;35.60;14.15;;;;;;;1.85;79.55;98952.50;3524978;28;20526;-58
2021/03/05 04:10:46;;;;;;;36.80;14.98;;;;;;;1.84;79.68;98955.00;3520359;28;20059;-58
2021/03/05 04:12:29;;;;;;;37.20;14.65;;;;;;;1.83;80.07;98960.91;3525685;28;20059;-57
2021/03/05 04:14:11;;;;;;;36.08;14.02;;;;;;;1.82;80.12;98961.75;3520180;28;20048;-57
2021/03/05 04:15:52;;;;;;;37.78;14.80;;;;;;;1.78;80.90;98963.31;3522668;28;20040;-58
2021/03/05 04:17:35;;;;;;;37.42;13.75;;;;;;;1.79;80.92;98959.06;3512112;28;20124;-58
2021/03/05 04:19:16;;;;;;;36.25;13.98;;;;;;;1.79;81.49;98959.06;3514858;28;20048;-57
2021/03/05 04:21:04;;;;;;;39.78;15.15;;;;;;;1.79;81.53;98962.50;3525133;28;20066;-57
2021/03/05 04:22:46;;;;;;;40.08;14.07;;;;;;;1.79;81.66;98957.38;3521551;28;20043;-58
2021/03/05 04:24:28;;;;;;;37.50;14.73;;;;;;;1.78;81.88;98953.09;3524374;28;20055;-58
2021/03/05 04:26:10;;;;;;;39.90;15.63;;;;;;;1.79;82.28;98959.06;3513778;28;20044;-58
2021/03/05 04:27:52;;;;;;;34.47;14.20;;;;;;;1.79;82.69;98961.63;3513853;28;20048;-58
2021/03/05 04:29:33;;;;;;;40.28;14.07;;;;;;;1.78;82.92;98960.78;3512137;28;20074;-58
2021/03/05 04:31:15;;;;;;;40.67;15.13;;;;;;;1.79;82.96;98959.06;3514089;28;20436;-57
2021/03/05 04:32:57;;;;;;;44.10;15.30;;;;;;;1.79;83.49;98965.06;3525294;28;20082;-58
2021/03/05 04:34:39;;;;;;;37.33;13.93;;;;;;;1.79;83.83;98961.63;3520475;28;20056;-58
2021/03/05 04:36:21;;;;;;;36.75;14.68;;;;;;;1.78;83.68;98965.88;3523669;28;20135;-58
2021/03/05 04:38:17;;;;;;;39.60;15.68;;;;;;;1.80;83.72;98965.94;3522302;28;20070;-58
2021/03/05 04:39:59;;;;;;;38.90;14.38;;;;;;;1.79;83.73;98972.72;3522586;28;20043;-58
2021/03/05 04:41:41;;;;;;;38.40;16.25;;;;;;;1.76;83.86;98970.06;3524856;28;20127;-48
2021/03/05 04:43:23;;;;;;;40.97;15.82;;;;;;;1.77;84.43;98971.81;3522135;28;20043;-48
2021/03/05 04:45:07;;;;;;;39.83;15.38;;;;;;;1.76;84.65;98972.63;3521915;28;20142;-50
2021/03/05 04:46:49;;;;;;;37.58;16.13;;;;;;;1.75;84.74;98966.63;3511576;28;20501;-52
2021/03/05 04:48:31;;;;;;;43.50;18.13;;;;;;;1.75;84.86;98966.63;3514241;28;20522;-50
2021/03/05 04:50:13;;;;;;;48.00;16.10;;;;;;;1.75;85.06;98964.06;3524942;28;20051;-51
2021/03/05 04:51:55;;;;;;;47.95;17.38;;;;;;;1.74;84.90;98964.91;3521178;28;20048;-51
2021/03/05 04:53:37;;;;;;;46.83;17.05;;;;;;;1.71;84.92;98964.78;3524477;28;20547;-52
2021/03/05 04:55:18;;;;;;;47.88;17.67;;;;;;;1.71;85.38;98972.44;3521834;28;20082;-51
2021/03/05 04:57:00;;;;;;;40.85;16.38;;;;;;;1.69;85.37;98971.53;3522974;28;20096;-52
2021/03/05 04:58:41;;;;;;;44.40;16.33;;;;;;;1.67;85.31;98974.81;3522358;28;20051;-51
2021/03/05 05:00:23;;;;;;;42.22;16.17;;;;;;;1.67;85.67;98974.81;3519746;28;20075;-51
2021/03/05 05:02:06;;;;;;;44.00;17.05;;;;;;;1.65;85.89;98979.88;3524615;28;20048;-52
2021/03/05 05:03:48;;;;;;;47.45;17.80;;;;;;;1.65;85.75;98981.56;3521571;28;20043;-51
2021/03/05 05:05:29;;;;;;;42.60;15.98;;;;;;;1.65;85.97;98976.47;3523157;28;20048;-54
2021/03/05 05:07:11;;;;;;;42.70;17.33;;;;;;;1.63;85.86;98981.50;3513053;28;20452;-51
2021/03/05 05:08:53;;;;;;;45.17;17.90;;;;;;;1.64;86.04;98990.94;3513169;28;20043;-52
2021/03/05 05:10:35;;;;;;;40.60;15.82;;;;;;;1.61;86.04;98985.69;3522129;28;20147;-53
2021/03/05 05:12:16;;;;;;;48.15;16.92;;;;;;;1.61;86.37;98987.38;3521277;28;20048;-52
2021/03/05 05:13:58;;;;;;;44.92;16.67;;;;;;;1.62;86.68;98986.56;3523113;28;20055;-55
2021/03/05 05:15:40;;;;;;;45.38;17.10;;;;;;;1.63;86.20;98990.88;3519791;28;20051;-51
2021/03/05 05:17:21;;;;;;;44.03;16.70;;;;;;;1.62;86.22;98987.44;3523939;28;20220;-51
2021/03/05 05:19:04;;;;;;;41.65;17.45;;;;;;;1.62;86.66;98986.56;3520372;28;20146;-52
2021/03/05 05:20:45;;;;;;;55.38;17.15;;;;;;;1.64;86.61;98988.38;3522333;28;20104;-54
2021/03/05 05:22:30;;;;;;;41.10;16.27;;;;;;;1.66;87.33;98988.44;3511777;28;20059;-51
2021/03/05 05:24:12;;;;;;;44.55;16.20;;;;;;;1.68;87.17;98994.47;3515973;28;20052;-53
2021/03/05 05:25:54;;;;;;;43.33;16.42;;;;;;;1.69;86.80;98991.09;3524364;28;20508;-54
2021/03/05 05:27:36;;;;;;;49.33;17.05;;;;;;;1.69;87.24;98989.44;3521248;28;20500;-58
2021/03/05 05:29:17;;;;;;;40.15;17.00;;;;;;;1.69;87.38;98996.19;3522481;28;20054;-58
2021/03/05 05:30:59;;;;;;;50.20;19.40;;;;;;;1.69;87.26;98993.66;3521675;28;20047;-58
2021/03/05 05:32:42;;;;;;;48.13;17.98;;;;;;;1.68;86.89;98997.91;3520757;28;20539;-58
2021/03/05 05:34:24;;;;;;;52.10;20.70;;;;;;;1.67;87.09;98997.84;3510437;28;20050;-58
2021/03/05 05:36:06;;;;;;;51.97;19.95;;;;;;;1.64;87.23;99005.41;3514829;28;20120;-58
2021/03/05 05:37:49;;;;;;;43.55;18.77;;;;;;;1.61;87.54;98997.63;3524361;28;20492;-58
2021/03/05 05:39:30;;;;;;;52.28;19.98;;;;;;;1.59;87.76;98999.25;3513692;28;20055;-58
2021/03/05 05:41:12;;;;;;;53.75;18.70;;;;;;;1.57;88.02;99001.75;3511650;28;20086;-59
2021/03/05 05:42:54;;;;;;;51.25;19.40;;;;;;;1.56;87.90;99000.88;3521328;28;20424;-58
2021/03/05 05:44:36;;;;;;;47.35;18.52;;;;;;;1.56;87.91;99006.00;3522347;28;20051;-59
2021/03/05 05:46:21;;;;;;;49.92;19.35;;;;;;;1.54;88.11;99002.47;3510523;28;20032;-54
2021/03/05 05:48:04;;;;;;;49.38;18.80;;;;;;;1.54;87.94;99009.28;3515057;28;20501;-53
2021/03/05 05:49:46;;;;;;;46.80;17.20;;;;;;;1.53;87.86;99015.19;3524585;28;20059;-58
2021/03/05 05:51:30;;;;;;;40.97;17.48;;;;;;;1.52;87.87;99011.78;3514459;28;20284;-59
2021/03/05 05:53:14;;;;;;;44.17;17.55;;;;;;;1.53;88.53;99016.09;3512468;28;20051;-59
2021/03/05 05:54:57;;;;;;;53.60;18.33;;;;;;;1.55;88.32;99018.69;3512277;28;20404;-59
2021/03/05 05:56:41;;;;;;;52.72;18.33;;;;;;;1.57;88.49;99011.97;3513768;28;20048;-59
2021/03/05 05:58:23;;;;;;;44.75;17.05;;;;;;;1.59;88.33;99009.47;3524353;28;20059;-59
2021/03/05 06:00:09;;;;;;;45.40;18.67;;;;;;;1.61;88.24;99011.25;3520411;28;20424;-59
2021/03/05 06:01:52;;;;;;;45.00;18.00;;;;;;;1.64;88.05;99019.06;3522555;28;20048;-59
2021/03/05 06:03:34;;;;;;;;;;;;;;;1.66;88.16;99024.22;3520699;28;20086;-59
2021/03/05 06:05:16;;;;;;;41.50;17.65;;;;;;;1.67;87.98;99024.28;3521913;28;19931;-59
2021/03/05 06:06:58;;;;;;;46.03;19.05;;;;;;;1.69;88.00;99024.31;3522430;28;20059;-59
2021/03/05 06:08:41;;;;;;;49.53;18.58;;;;;;;1.71;88.43;99030.41;3519321;28;20054;-52
2021/03/05 06:10:22;;;;;;;53.95;19.55;;;;;;;1.73;88.57;99027.06;3524136;28;20052;-53
2021/03/05 06:12:14;;;;;;;40.58;16.35;;;;;;;1.78;88.76;99028.91;3520554;28;20085;-50
2021/03/05 06:13:55;;;;;;;46.08;19.55;;;;;;;1.81;88.72;99040.13;3520373;28;20047;-51
2021/03/05 06:15:37;;;;;;;49.35;19.40;;;;;;;1.82;88.25;99033.34;3521638;28;20428;-59
2021/03/05 06:17:19;;;;;;;43.45;18.52;;;;;;;1.84;88.13;99039.41;3521173;28;20048;-59
2021/03/05 06:19:16;;;;;;;46.40;17.25;;;;;;;1.84;87.64;99045.38;3523302;28;20056;-59
2021/03/05 06:20:58;;;;;;;42.47;17.75;;;;;;;1.86;87.79;99045.44;3520402;28;20059;-58
2021/03/05 06:22:41;;;;;;;47.45;19.20;;;;;;;1.87;87.51;99044.63;3523538;28;20531;-53
2021/03/05 06:24:23;;;;;;;47.53;18.95;;;;;;;1.88;87.59;99042.13;3512341;28;20047;-52
2021/03/05 06:26:05;;;;;;;48.40;19.27;;;;;;;1.91;87.59;99047.34;3512985;28;20051;-51
2021/03/05 06:27:47;;;;;;;50.50;19.83;;;;;;;1.93;87.41;99043.16;3522548;28;20039;-52
2021/03/05 06:29:39;;;;;;;47.95;19.52;;;;;;;1.97;87.10;99043.28;3517031;28;20055;-51
2021/03/05 06:31:23;;;;;;;45.97;20.20;;;;;;;2.00;87.13;99051.06;3510072;28;20047;-50
2021/03/05 06:33:21;;;;;;;47.75;19.20;;;;;;;2.04;86.91;99055.47;3512401;28;20040;-51
2021/03/05 06:35:04;;;;;;;52.70;20.10;;;;;;;2.08;87.17;99045.44;3511969;28;20048;-52
2021/03/05 06:36:59;;;;;;;46.88;20.15;;;;;;;2.11;86.57;99049.78;3509632;28;20476;-54
2021/03/05 06:38:43;;;;;;;51.40;21.48;;;;;;;2.11;85.80;99049.78;3516609;28;20043;-52
2021/03/05 06:40:26;;;;;;;52.33;20.83;;;;;;;2.12;86.25;99047.28;3523270;28;20073;-50
2021/03/05 06:42:09;;;;;;;49.53;19.63;;;;;;;2.13;85.65;99040.50;3520677;28;20888;-53
2021/03/05 06:43:52;;;;;;;47.35;18.90;;;;;;;2.12;85.17;99046.41;3520275;28;20075;-50
2021/03/05 06:45:36;;;;;;;42.20;19.45;;;;;;;2.12;84.95;99048.97;3522604;28;20416;-52
2021/03/05 06:47:20;;;;;;;49.42;19.77;;;;;;;2.11;84.43;99045.56;3520080;28;20047;-51
2021/03/05 06:49:04;;;;;;;48.58;18.48;;;;;;;2.12;85.01;99044.72;3512194;28;20131;-51
2021/03/05 06:50:46;;;;;;;46.47;19.13;;;;;;;2.14;84.69;99042.22;3521748;28;20105;-52
2021/03/05 06:52:33;;;;;;;45.05;19.58;;;;;;;2.16;84.64;99039.72;3524272;28;20051;-51
2021/03/05 06:54:15;;;;;;;45.90;18.83;;;;;;;2.17;84.82;99047.47;3523615;28;20044;-53
2021/03/05 06:55:57;;;;;;;44.28;18.25;;;;;;;2.19;84.44;99052.63;3521311;28;20054;-50
2021/03/05 06:57:39;;;;;;;40.20;17.48;;;;;;;2.21;84.17;99051.88;3512256;28;20058;-52
2021/03/05 06:59:21;;;;;;;43.95;17.27;;;;;;;2.24;84.24;99051.13;3514266;28;20086;-51
2021/03/05 07:01:04;;;;;;;41.45;18.60;;;;;;;2.27;84.32;99052.09;3512231;28;20047;-51
2021/03/05 07:02:46;;;;;;;38.03;16.90;;;;;;;2.29;83.83;99045.34;3521889;28;20397;-51
2021/03/05 07:04:29;;;;;;;39.47;16.83;;;;;;;2.31;83.70;99045.41;3524933;28;20508;-50
2021/03/05 07:06:17;;;;;;;45.22;17.33;;;;;;;2.35;83.68;99049.81;3513882;28;20079;-51
2021/03/05 07:07:59;;;;;;;42.67;17.55;;;;;;;2.38;83.69;99049.03;3517005;28;20039;-58
2021/03/05 07:10:00;;;;;;;40.08;16.63;;;;;;;2.41;83.05;99050.06;3525203;28;20194;-58
2021/03/05 07:11:48;;;;;;;40.10;15.27;;;;;;;2.45;82.82;99051.03;3522637;28;20058;-59
2021/03/05 07:13:47;;;;;;;36.77;15.23;;;;;;;2.48;82.34;99051.13;3522615;28;20539;-58
2021/03/05 07:15:30;;;;;;;36.22;15.18;;;;;;;2.52;82.19;99055.56;3511935;28;20288;-58
2021/03/05 07:17:27;;;;;;;39.67;15.35;;;;;;;2.54;82.00;99043.66;3518863;28;20574;-58
2021/03/05 07:19:10;;;;;;;39.00;17.25;;;;;;;2.60;82.39;99060.94;3525284;28;20054;-58
2021/03/05 07:20:51;;;;;;;41.47;16.85;;;;;;;2.63;82.67;99054.22;3523164;28;20484;-58
2021/03/05 07:22:33;;;;;;;35.90;14.57;;;;;;;2.70;82.30;99055.31;3523503;28;20120;-58
2021/03/05 07:24:17;;;;;;;37.85;15.70;;;;;;;2.70;81.12;99051.06;3525144;28;20100;-58
2021/03/05 07:26:00;;;;;;;36.75;16.13;;;;;;;2.75;80.84;99053.78;3520830;28;20297;-58
2021/03/05 07:27:44;;;;;;;43.20;17.55;;;;;;;2.76;79.78;99058.09;3525828;28;20055;-58
2021/03/05 07:29:30;;;;;;;37.22;15.95;;;;;;;2.79;79.85;99047.09;3522848;28;20092;-58
2021/03/05 07:31:15;;;;;;;33.67;14.23;;;;;;;2.80;79.11;99056.50;3524403;28;20466;-58
2021/03/05 07:32:59;;;;;;;30.70;13.73;;;;;;;2.81;78.69;99050.56;3524124;28;20055;-58
2021/03/05 07:34:47;;;;;;;36.03;15.30;;;;;;;2.82;78.53;99053.19;3522404;28;20050;-58
2021/03/05 07:36:30;;;;;;;34.00;14.30;;;;;;;2.84;78.48;99048.13;3525815;28;20055;-58
2021/03/05 07:38:14;;;;;;;29.58;13.15;;;;;;;2.87;79.43;99043.97;3522119;28;20054;-58
2021/03/05 07:40:00;;;;;;;31.85;12.80;;;;;;;2.94;80.14;99044.16;3523403;28;20055;-58
2021/03/05 07:41:42;;;;;;;29.48;13.57;;;;;;;3.01;79.13;99044.44;3522830;28;20073;-58
2021/03/05 07:43:25;;;;;;;30.10;12.98;;;;;;;3.07;78.34;99041.22;3521461;28;20044;-58
2021/03/05 07:45:09;;;;;;;35.00;14.50;;;;;;;3.14;77.96;99052.53;3511524;28;20048;-58
2021/03/05 07:46:51;;;;;;;38.70;14.50;;;;;;;3.19;78.22;99049.31;3517207;28;20039;-58
2021/03/05 07:48:34;;;;;;;29.95;13.95;;;;;;;3.28;77.76;99048.72;3525269;28;20055;-58
2021/03/05 07:50:22;;;;;;;28.33;13.35;;;;;;;3.36;78.76;99049.84;3513987;28;20444;-58
2021/03/05 07:52:04;;;;;;;32.00;14.63;;;;;;;3.44;77.40;99048.41;3513901;28;20100;-58
2021/03/05 07:53:50;;;;;;;28.73;12.80;;;;;;;3.47;74.46;99052.72;3523407;28;20516;-58
2021/03/05 07:55:36;;;;;;;29.85;13.25;;;;;;;3.51;75.26;99053.72;3520748;28;20047;-51
2021/03/05 07:57:47;;;;;;;30.63;12.80;;;;;;;3.54;76.29;99052.13;3525583;28;20100;-54
2021/03/05 07:59:47;;;;;;;29.60;13.20;;;;;;;3.53;74.08;99054.66;3512406;28;20453;-51
2021/03/05 08:01:56;;;;;;;27.70;12.10;;;;;;;3.55;74.96;99058.13;3516578;28;20149;-53
2021/03/05 08:03:54;;;;;;;26.38;11.65;;;;;;;3.65;77.46;99052.47;3523118;28;20512;-54
2021/03/05 08:05:42;;;;;;;25.75;11.98;;;;;;;3.69;74.29;99056.00;3522961;28;20055;-54